Polfoss — LADQ8 — position and weather

sailwx.info

Track history (hours):
 
Tides and Currents Weather Stations Pressure Air Temp Water Temp Dewpoint Dewpoint Depression Visibility Wind Speed Wind Dir Waves Ship Positions

Polfoss

Last reported at 2018-Jun-25 08:00 UTC. Time now 2018-Jun-25 08:13 UTC.
Position N 64°08' E 010°05'.

Length 82 m; draft 5.3 m.

Type: Cargo ship. MMSI: 257307000.

Date/timePositionNaut miles runAvg speedWind from/ knotsBaromVisibWave heightAir tempDewpointWater temp
2018-Jun-25 08:00N 64°08' E 010°05'815.3
2018-Jun-25 07:30N 64°03' E 009°50'714.2
2018-Jun-25 06:59N 63°56' E 009°47'714.3
2018-Jun-25 06:30N 63°51' E 009°38'814.4
2018-Jun-25 05:59N 63°44' E 009°32'713.8
2018-Jun-25 05:30N 63°37' E 009°28'714.7
2018-Jun-25 05:00N 63°33' E 009°16'816.0
2018-Jun-25 04:30N 63°29' E 009°00'815.8
2018-Jun-25 04:00N 63°26' E 008°43'815.8
2018-Jun-25 03:30N 63°23' E 008°27'815.4
2018-Jun-25 03:00N 63°18' E 008°14'815.3
2018-Jun-25 02:30N 63°14' E 007°60'715.1
2018-Jun-25 02:00N 63°10' E 007°45'814.9
2018-Jun-25 01:30N 63°06' E 007°31'714.7
2018-Jun-25 01:00N 63°03' E 007°17'815.2
2018-Jun-25 00:30N 62°60' E 007°01'714.7
2018-Jun-25 00:00N 62°56' E 006°48'815.4
2018-Jun-24 23:30N 62°49' E 006°39'815.3
2018-Jun-24 23:00N 62°43' E 006°30'814.9
2018-Jun-24 22:29N 62°37' E 006°19'714.5
2018-Jun-24 21:59N 62°31' E 006°09'4 8.4
2018-Jun-24 21:30N 62°27' E 006°09'1 2.1
2018-Jun-24 21:01N 62°28' E 006°08'0 0.3
2018-Jun-24 20:30N 62°28' E 006°09'4 8.5
2018-Jun-24 20:00N 62°26' E 006°00'713.9
2018-Jun-24 19:30N 62°22' E 005°48'612.9
2018-Jun-24 19:00N 62°19' E 005°37'714.6
2018-Jun-24 18:30N 62°17' E 005°21'715.0
2018-Jun-24 18:01N 62°13' E 005°08'612.5
2018-Jun-24 17:30N 62°07' E 005°05'714.8
2018-Jun-24 17:00N 61°60' E 005°10'1 2.3
2018-Jun-24 16:30N 61°59' E 005°08'2 4.6
2018-Jun-24 15:59N 61°57' E 005°08'1 1.8
2018-Jun-24 15:30N 61°56' E 005°07'0 0.0
2018-Jun-24 14:59N 61°56' E 005°07'0 0.4
2018-Jun-24 14:30N 61°56' E 005°07'612.0
2018-Jun-24 14:00N 61°51' E 005°16'714.2
2018-Jun-24 13:30N 61°47' E 005°04'714.5
2018-Jun-24 13:00N 61°40' E 004°58'510.7
2018-Jun-24 12:30N 61°35' E 004°60'0 0.0
2018-Jun-24 12:00N 61°35' E 004°60'0 0.0
2018-Jun-24 11:30N 61°35' E 004°60'2 3.7
2018-Jun-24 10:59N 61°33' E 004°60'714.1
2018-Jun-24 10:30N 61°27' E 004°55'714.4
2018-Jun-24 10:00N 61°20' E 004°48'612.0
2018-Jun-24 09:30N 61°16' E 004°40'1 2.8
2018-Jun-24 09:00N 61°17' E 004°38'4 8.4
2018-Jun-24 08:30N 61°13' E 004°36'815.1
2018-Jun-24 07:59N 61°07' E 004°26'715.1
2018-Jun-24 07:30N 61°01' E 004°16'28214.8
2018-Jun-23 12:26N 57°25' W 001°38'814.8
2018-Jun-23 11:56N 57°19' W 001°47'614.8
2018-Jun-23 11:30N 57°14' W 001°54'714.5
2018-Jun-23 11:00N 57°09' W 002°03'1 2.9
2018-Jun-23 10:30N 57°09' W 002°05'0 0.0
2018-Jun-23 10:00N 57°09' W 002°05'0 0.0
2018-Jun-23 09:28N 57°09' W 002°05'0 0.0
2018-Jun-23 08:58N 57°09' W 002°05'0 0.0
2018-Jun-23 08:28N 57°09' W 002°05'0 0.0
2018-Jun-23 07:58N 57°09' W 002°05'0 0.0
2018-Jun-23 07:28N 57°09' W 002°05'0 0.0
2018-Jun-23 07:00N 57°09' W 002°05'0 0.0
2018-Jun-23 06:30N 57°09' W 002°05'0 0.0
2018-Jun-23 06:00N 57°09' W 002°05'0 0.0
2018-Jun-23 05:30N 57°09' W 002°05'0 0.0
2018-Jun-23 05:00N 57°09' W 002°05'1 1.3
2018-Jun-23 04:31N 57°08' W 002°04'4 7.8
2018-Jun-23 04:00N 57°07' W 001°58'815.2
2018-Jun-23 03:30N 56°60' W 001°53'3615.5
2018-Jun-23 01:10N 56°26' W 001°30'314.9
2018-Jun-23 00:57N 56°23' W 001°28'814.7
2018-Jun-23 00:24N 56°15' W 001°22'714.4
2018-Jun-22 23:55N 56°09' W 001°17'613.8
2018-Jun-22 23:30N 56°04' W 001°14'1414.0
2018-Jun-22 22:31N 55°51' W 001°05'114.0
2018-Jun-22 22:29N 55°50' W 001°05'1814.2
2018-Jun-22 21:11N 55°33' W 000°53'414.6
2018-Jun-22 20:55N 55°29' W 000°50'614.7
2018-Jun-22 20:29N 55°24' W 000°44'714.9
2018-Jun-22 20:00N 55°17' W 000°41'815.1
2018-Jun-22 19:30N 55°10' W 000°37'815.2
2018-Jun-22 19:01N 55°03' W 000°32'1015.4
2018-Jun-22 18:20N 54°53' W 000°26'515.5
2018-Jun-22 18:00N 54°48' W 000°23'815.5
2018-Jun-22 17:31N 54°41' W 000°18'815.6
2018-Jun-22 17:01N 54°34' W 000°13'815.3
2018-Jun-22 16:31N 54°27' W 000°09'815.1
2018-Jun-22 16:00N 54°19' W 000°04'714.7
2018-Jun-22 15:31N 54°13' E 000°01'714.4
2018-Jun-22 15:01N 54°06' E 000°05'714.1
2018-Jun-22 14:30N 53°59' E 000°10'25 8.2
2018-Jun-22 11:30N 53°35' E 000°01'3 6.3
2018-Jun-22 11:00N 53°35' W 000°04'0 0.0
2018-Jun-20 23:06N 53°35' W 000°04'2 2.3
2018-Jun-20 22:13N 53°35' W 000°00'2 4.9
2018-Jun-20 21:42N 53°35' E 000°04'11511.5
2018-Jun-20 11:41N 52°46' E 002°57'314.0
2018-Jun-20 11:26N 52°45' E 003°02'1913.9
2018-Jun-20 10:02N 52°37' E 003°32'213.9
2018-Jun-20 09:56N 52°36' E 003°34'713.8
2018-Jun-20 09:26N 52°34' E 003°45'614.0
2018-Jun-20 09:00N 52°32' E 003°54'713.5
2018-Jun-20 08:30N 52°31' E 004°05'713.6
2018-Jun-20 08:00N 52°30' E 004°16'713.7
2018-Jun-20 07:30N 52°29' E 004°27'611.2
2018-Jun-20 07:00N 52°28' E 004°36'0 0.4
2018-Jun-20 06:30N 52°28' E 004°36'2 4.4
2018-Jun-20 06:00N 52°28' E 004°40'0 0.0
2018-Jun-20 05:30N 52°28' E 004°40'0 0.0
2018-Jun-20 05:00N 52°28' E 004°40'0 0.0
2018-Jun-20 04:30N 52°28' E 004°40'0 0.0
2018-Jun-20 04:00N 52°28' E 004°40'0 0.0
2018-Jun-20 03:30N 52°28' E 004°40'0 0.0
2018-Jun-20 03:00N 52°28' E 004°40'0 0.0
2018-Jun-20 02:27N 52°28' E 004°40'0 0.0
2018-Jun-20 01:57N 52°28' E 004°40'0 0.0
2018-Jun-20 01:30N 52°28' E 004°40'0 0.0
2018-Jun-20 00:57N 52°28' E 004°40'0 0.0
2018-Jun-20 00:24N 52°28' E 004°40'0 0.0
2018-Jun-19 23:54N 52°28' E 004°40'0 0.0
2018-Jun-19 23:30N 52°28' E 004°40'0 0.0
2018-Jun-19 22:57N 52°28' E 004°40'0 0.0
2018-Jun-19 22:30N 52°28' E 004°40'0 0.0
2018-Jun-19 21:57N 52°28' E 004°40'0 0.0
2018-Jun-19 21:27N 52°28' E 004°40'0 0.0
2018-Jun-19 20:57N 52°28' E 004°40'0 0.0
2018-Jun-19 20:30N 52°28' E 004°40'0 0.0
2018-Jun-19 20:00N 52°28' E 004°40'0 0.0
2018-Jun-19 19:30N 52°28' E 004°40'0 0.0
2018-Jun-19 19:00N 52°28' E 004°40'0 0.0
2018-Jun-19 17:57N 52°28' E 004°40'0 0.0
2018-Jun-19 17:27N 52°28' E 004°40'0 0.0
2018-Jun-19 17:00N 52°28' E 004°40'0 0.0
2018-Jun-19 16:30N 52°28' E 004°40'0 0.0
2018-Jun-19 15:57N 52°28' E 004°40'0 0.0
2018-Jun-19 15:30N 52°28' E 004°40'0 0.0
2018-Jun-19 15:00N 52°28' E 004°40'0 0.0
2018-Jun-19 14:30N 52°28' E 004°40'0 0.0
2018-Jun-19 14:00N 52°28' E 004°40'0 0.0
2018-Jun-19 13:30N 52°28' E 004°40'0 0.0
2018-Jun-19 13:00N 52°28' E 004°40'0 0.0
2018-Jun-19 12:30N 52°28' E 004°40'0 0.0
2018-Jun-19 12:00N 52°28' E 004°40'0 0.0
2018-Jun-19 11:30N 52°28' E 004°40'0 0.0
2018-Jun-19 11:00N 52°28' E 004°40'0 0.0
2018-Jun-19 10:27N 52°28' E 004°40'0 0.0
2018-Jun-19 09:57N 52°28' E 004°40'0 0.0
2018-Jun-19 09:27N 52°28' E 004°40'0 0.0
2018-Jun-19 09:00N 52°28' E 004°40'0 0.0
2018-Jun-19 08:30N 52°28' E 004°40'0 0.0
2018-Jun-19 07:57N 52°28' E 004°40'0 0.0
2018-Jun-19 07:27N 52°28' E 004°40'0 0.0
2018-Jun-19 06:57N 52°28' E 004°40'0 0.0
2018-Jun-19 06:30N 52°28' E 004°40'0 0.0
2018-Jun-19 05:57N 52°28' E 004°40'0 0.0
2018-Jun-19 05:27N 52°28' E 004°40'0 0.0
2018-Jun-19 05:00N 52°28' E 004°40'0 0.0
2018-Jun-19 04:30N 52°28' E 004°40'0 0.0
2018-Jun-19 03:54N 52°28' E 004°40'0 0.1
2018-Jun-19 03:27N 52°28' E 004°40'0 0.0
2018-Jun-19 03:00N 52°28' E 004°40'0 0.0
2018-Jun-19 02:30N 52°28' E 004°40'0 0.0
2018-Jun-19 02:00N 52°28' E 004°40'0 0.0
2018-Jun-19 01:27N 52°28' E 004°40'0 0.0
2018-Jun-19 01:00N 52°28' E 004°40'0 0.0
2018-Jun-19 00:27N 52°28' E 004°40'0 0.0
2018-Jun-18 23:51N 52°28' E 004°40'0 0.0
2018-Jun-18 23:30N 52°28' E 004°40'0 0.0
2018-Jun-18 23:00N 52°28' E 004°40'0 0.0
2018-Jun-18 22:27N 52°28' E 004°40'0 0.0
2018-Jun-18 21:57N 52°28' E 004°40'0 0.0
2018-Jun-18 21:27N 52°28' E 004°40'0 0.0
2018-Jun-18 20:57N 52°28' E 004°40'0 0.0
2018-Jun-18 20:30N 52°28' E 004°40'0 0.0
2018-Jun-18 20:00N 52°28' E 004°40'0 0.0
2018-Jun-18 19:30N 52°28' E 004°40'0 0.0
2018-Jun-18 19:00N 52°28' E 004°40'0 0.0
2018-Jun-18 18:30N 52°28' E 004°40'0 0.0
2018-Jun-18 18:00N 52°28' E 004°40'0 0.0
2018-Jun-18 17:30N 52°28' E 004°40'0 0.0
2018-Jun-18 16:57N 52°28' E 004°40'0 0.0
2018-Jun-18 16:30N 52°28' E 004°40'0 0.0
2018-Jun-18 15:51N 52°28' E 004°40'0 0.0
2018-Jun-18 15:30N 52°28' E 004°40'0 0.0
2018-Jun-18 14:57N 52°28' E 004°40'0 0.0
2018-Jun-18 14:27N 52°28' E 004°40'0 0.0
2018-Jun-18 14:00N 52°28' E 004°40'0 0.0
2018-Jun-18 13:31N 52°28' E 004°40'2 4.4
2018-Jun-18 13:00N 52°28' E 004°36'1 1.7
2018-Jun-18 12:30N 52°28' E 004°35'5 9.3
2018-Jun-18 12:00N 52°31' E 004°29'5 9.8
2018-Jun-18 11:30N 52°36' E 004°29'4 7.1
2018-Jun-18 10:58N 52°40' E 004°29'4 8.3
2018-Jun-18 10:28N 52°44' E 004°29'4 7.8
2018-Jun-18 10:00N 52°47' E 004°29'4 8.1
2018-Jun-18 09:31N 52°51' E 004°29'5 9.4
2018-Jun-18 08:58N 52°56' E 004°30'510.5
2018-Jun-18 08:29N 53°02' E 004°31'510.2
2018-Jun-18 07:58N 53°07' E 004°32'30113.0
2018-Jun-17 08:46N 58°04' E 005°55'313.0
2018-Jun-17 08:30N 58°07' E 005°55'713.3
2018-Jun-17 08:01N 58°14' E 005°57'713.6
2018-Jun-17 07:31N 58°21' E 005°59'611.1
2018-Jun-17 07:01N 58°26' E 005°59'0 0.0
2018-Jun-17 06:30N 58°26' E 005°59'0 0.0
2018-Jun-17 06:01N 58°26' E 005°59'0 0.0
2018-Jun-17 05:30N 58°26' E 005°59'0 0.0
2018-Jun-17 05:01N 58°26' E 005°59'0 0.0
2018-Jun-17 04:31N 58°26' E 005°59'0 0.0
2018-Jun-17 04:00N 58°26' E 005°59'0 0.0
2018-Jun-17 03:31N 58°26' E 005°59'0 0.0
2018-Jun-17 03:01N 58°26' E 005°59'0 0.0
2018-Jun-17 02:31N 58°26' E 005°59'0 0.0
2018-Jun-17 02:01N 58°26' E 005°59'0 0.0
2018-Jun-17 01:31N 58°26' E 005°59'0 0.0
2018-Jun-17 01:01N 58°26' E 005°59'0 0.0
2018-Jun-17 00:31N 58°26' E 005°59'0 0.0
2018-Jun-17 00:00N 58°26' E 005°59'0 0.0
2018-Jun-16 23:30N 58°26' E 005°59'0 0.0
2018-Jun-16 23:00N 58°26' E 005°59'0 0.0
2018-Jun-16 22:30N 58°26' E 005°59'0 0.0
2018-Jun-16 22:01N 58°26' E 005°59'0 0.0
2018-Jun-16 21:30N 58°26' E 005°59'0 0.0
2018-Jun-16 21:01N 58°26' E 005°59'0 0.0
2018-Jun-16 20:30N 58°26' E 005°59'0 0.0
2018-Jun-16 20:00N 58°26' E 005°59'0 0.0
2018-Jun-16 19:30N 58°26' E 005°59'0 0.0
2018-Jun-16 19:01N 58°26' E 005°59'0 0.0
2018-Jun-16 18:30N 58°26' E 005°59'0 0.0
2018-Jun-16 18:00N 58°26' E 005°59'0 0.0
2018-Jun-16 17:31N 58°26' E 005°59'0 0.0
2018-Jun-16 17:01N 58°26' E 005°59'0 0.0
2018-Jun-16 16:31N 58°26' E 005°59'0 0.0
2018-Jun-16 16:01N 58°26' E 005°59'0 0.0
2018-Jun-16 15:30N 58°26' E 005°59'0 0.0
2018-Jun-16 15:00N 58°26' E 005°59'0 0.0
2018-Jun-16 14:31N 58°26' E 005°59'0 0.0
2018-Jun-16 14:01N 58°26' E 005°59'0 0.0
2018-Jun-16 13:31N 58°26' E 005°59'0 0.0
2018-Jun-16 13:00N 58°26' E 005°59'0 0.2
2018-Jun-16 12:30N 58°26' E 005°59'4 8.8
2018-Jun-16 12:00N 58°25' E 005°51'713.7
2018-Jun-16 11:30N 58°29' E 005°41'713.4
2018-Jun-16 11:00N 58°34' E 005°33'713.7
2018-Jun-16 10:31N 58°40' E 005°27'713.6
2018-Jun-16 10:00N 58°47' E 005°24'612.9
2018-Jun-16 09:30N 58°52' E 005°31'713.3
2018-Jun-16 09:00N 58°59' E 005°33'713.6
2018-Jun-16 08:30N 59°06' E 005°31'713.2
2018-Jun-16 08:00N 59°10' E 005°21'713.2
2018-Jun-16 07:31N 59°16' E 005°20'4 7.9
2018-Jun-16 06:59N 59°20' E 005°18'0 0.0
2018-Jun-16 06:29N 59°20' E 005°18'0 0.0
2018-Jun-16 05:59N 59°20' E 005°18'0 0.0
2018-Jun-16 05:29N 59°20' E 005°18'0 0.0
2018-Jun-16 04:59N 59°20' E 005°18'0 0.0
2018-Jun-16 04:29N 59°20' E 005°18'0 0.0
2018-Jun-16 03:59N 59°20' E 005°18'0 0.0
2018-Jun-16 03:29N 59°20' E 005°18'0 0.0
2018-Jun-16 02:59N 59°20' E 005°18'0 0.0
2018-Jun-16 02:29N 59°20' E 005°18'0 0.0
2018-Jun-16 01:59N 59°20' E 005°18'0 0.0
2018-Jun-16 01:29N 59°20' E 005°18'0 0.0
2018-Jun-16 00:59N 59°20' E 005°18'0 0.0
2018-Jun-16 00:29N 59°20' E 005°18'0 0.0
2018-Jun-15 23:59N 59°20' E 005°18'0 0.0
2018-Jun-15 23:29N 59°20' E 005°18'0 0.0
2018-Jun-15 22:59N 59°20' E 005°18'0 0.0
2018-Jun-15 22:29N 59°20' E 005°18'0 0.0
2018-Jun-15 21:59N 59°20' E 005°18'0 0.0
2018-Jun-15 21:29N 59°20' E 005°18'0 0.0
2018-Jun-15 20:59N 59°20' E 005°18'0 0.0
2018-Jun-15 20:29N 59°20' E 005°18'0 0.0
2018-Jun-15 19:59N 59°20' E 005°18'0 0.0
2018-Jun-15 19:29N 59°20' E 005°18'0 0.0
2018-Jun-15 18:59N 59°20' E 005°18'0 0.0
2018-Jun-15 18:29N 59°20' E 005°18'0 0.0
2018-Jun-15 17:59N 59°20' E 005°18'0 0.0
2018-Jun-15 17:29N 59°20' E 005°18'0 0.0
2018-Jun-15 16:59N 59°20' E 005°18'0 0.0
2018-Jun-15 16:29N 59°20' E 005°18'0 0.1
2018-Jun-15 15:59N 59°20' E 005°18'4 8.0
2018-Jun-15 15:30N 59°17' E 005°20'4 7.4
2018-Jun-15 14:59N 59°20' E 005°18'0 0.0
2018-Jun-15 14:29N 59°20' E 005°18'0 0.0
2018-Jun-15 13:59N 59°20' E 005°18'0 0.0
2018-Jun-15 13:29N 59°20' E 005°18'0 0.0
2018-Jun-15 12:59N 59°20' E 005°18'0 0.0
2018-Jun-15 12:29N 59°20' E 005°18'0 0.0
2018-Jun-15 11:59N 59°20' E 005°18'0 0.0
2018-Jun-15 11:29N 59°20' E 005°18'0 0.0
2018-Jun-15 10:59N 59°20' E 005°18'0 0.0
2018-Jun-15 10:29N 59°20' E 005°18'0 0.0
2018-Jun-15 09:59N 59°20' E 005°18'0 0.0
2018-Jun-15 09:29N 59°20' E 005°18'0 0.0
2018-Jun-15 08:59N 59°20' E 005°18'0 0.0
2018-Jun-15 08:29N 59°20' E 005°18'  
Track history (hours):
 
Tides and Currents Weather Stations Pressure Air Temp Water Temp Dewpoint Dewpoint Depression Visibility Wind Speed Wind Dir Waves Ship Positions

Polfoss

Last reported at 2018-Jun-25 08:00 UTC. Time now 2018-Jun-25 08:13 UTC.
Position N 64°08' E 010°05'.

Length 82 m; draft 5.3 m.

Type: Cargo ship. MMSI: 257307000.

Date/timePositionNaut miles runAvg speedWind from/ knotsBaromVisibWave heightAir tempDewpointWater temp
2018-Jun-25 08:00N 64°08' E 010°05'815.3
2018-Jun-25 07:30N 64°03' E 009°50'714.2
2018-Jun-25 06:59N 63°56' E 009°47'714.3
2018-Jun-25 06:30N 63°51' E 009°38'814.4
2018-Jun-25 05:59N 63°44' E 009°32'713.8
2018-Jun-25 05:30N 63°37' E 009°28'714.7
2018-Jun-25 05:00N 63°33' E 009°16'816.0
2018-Jun-25 04:30N 63°29' E 009°00'815.8
2018-Jun-25 04:00N 63°26' E 008°43'815.8
2018-Jun-25 03:30N 63°23' E 008°27'815.4
2018-Jun-25 03:00N 63°18' E 008°14'815.3
2018-Jun-25 02:30N 63°14' E 007°60'715.1
2018-Jun-25 02:00N 63°10' E 007°45'814.9
2018-Jun-25 01:30N 63°06' E 007°31'714.7
2018-Jun-25 01:00N 63°03' E 007°17'815.2
2018-Jun-25 00:30N 62°60' E 007°01'714.7
2018-Jun-25 00:00N 62°56' E 006°48'815.4
2018-Jun-24 23:30N 62°49' E 006°39'815.3
2018-Jun-24 23:00N 62°43' E 006°30'814.9
2018-Jun-24 22:29N 62°37' E 006°19'714.5
2018-Jun-24 21:59N 62°31' E 006°09'4 8.4
2018-Jun-24 21:30N 62°27' E 006°09'1 2.1
2018-Jun-24 21:01N 62°28' E 006°08'0 0.3
2018-Jun-24 20:30N 62°28' E 006°09'4 8.5
2018-Jun-24 20:00N 62°26' E 006°00'713.9
2018-Jun-24 19:30N 62°22' E 005°48'612.9
2018-Jun-24 19:00N 62°19' E 005°37'714.6
2018-Jun-24 18:30N 62°17' E 005°21'715.0
2018-Jun-24 18:01N 62°13' E 005°08'612.5
2018-Jun-24 17:30N 62°07' E 005°05'714.8
2018-Jun-24 17:00N 61°60' E 005°10'1 2.3
2018-Jun-24 16:30N 61°59' E 005°08'2 4.6
2018-Jun-24 15:59N 61°57' E 005°08'1 1.8
2018-Jun-24 15:30N 61°56' E 005°07'0 0.0
2018-Jun-24 14:59N 61°56' E 005°07'0 0.4
2018-Jun-24 14:30N 61°56' E 005°07'612.0
2018-Jun-24 14:00N 61°51' E 005°16'714.2
2018-Jun-24 13:30N 61°47' E 005°04'714.5
2018-Jun-24 13:00N 61°40' E 004°58'510.7
2018-Jun-24 12:30N 61°35' E 004°60'0 0.0
2018-Jun-24 12:00N 61°35' E 004°60'0 0.0
2018-Jun-24 11:30N 61°35' E 004°60'2 3.7
2018-Jun-24 10:59N 61°33' E 004°60'714.1
2018-Jun-24 10:30N 61°27' E 004°55'714.4
2018-Jun-24 10:00N 61°20' E 004°48'612.0
2018-Jun-24 09:30N 61°16' E 004°40'1 2.8
2018-Jun-24 09:00N 61°17' E 004°38'4 8.4
2018-Jun-24 08:30N 61°13' E 004°36'815.1
2018-Jun-24 07:59N 61°07' E 004°26'715.1
2018-Jun-24 07:30N 61°01' E 004°16'28214.8
2018-Jun-23 12:26N 57°25' W 001°38'814.8
2018-Jun-23 11:56N 57°19' W 001°47'614.8
2018-Jun-23 11:30N 57°14' W 001°54'714.5
2018-Jun-23 11:00N 57°09' W 002°03'1 2.9
2018-Jun-23 10:30N 57°09' W 002°05'0 0.0
2018-Jun-23 10:00N 57°09' W 002°05'0 0.0
2018-Jun-23 09:28N 57°09' W 002°05'0 0.0
2018-Jun-23 08:58N 57°09' W 002°05'0 0.0
2018-Jun-23 08:28N 57°09' W 002°05'0 0.0
2018-Jun-23 07:58N 57°09' W 002°05'0 0.0
2018-Jun-23 07:28N 57°09' W 002°05'0 0.0
2018-Jun-23 07:00N 57°09' W 002°05'0 0.0
2018-Jun-23 06:30N 57°09' W 002°05'0 0.0
2018-Jun-23 06:00N 57°09' W 002°05'0 0.0
2018-Jun-23 05:30N 57°09' W 002°05'0 0.0
2018-Jun-23 05:00N 57°09' W 002°05'1 1.3
2018-Jun-23 04:31N 57°08' W 002°04'4 7.8
2018-Jun-23 04:00N 57°07' W 001°58'815.2
2018-Jun-23 03:30N 56°60' W 001°53'3615.5
2018-Jun-23 01:10N 56°26' W 001°30'314.9
2018-Jun-23 00:57N 56°23' W 001°28'814.7
2018-Jun-23 00:24N 56°15' W 001°22'714.4
2018-Jun-22 23:55N 56°09' W 001°17'613.8
2018-Jun-22 23:30N 56°04' W 001°14'1414.0
2018-Jun-22 22:31N 55°51' W 001°05'114.0
2018-Jun-22 22:29N 55°50' W 001°05'1814.2
2018-Jun-22 21:11N 55°33' W 000°53'414.6
2018-Jun-22 20:55N 55°29' W 000°50'614.7
2018-Jun-22 20:29N 55°24' W 000°44'714.9
2018-Jun-22 20:00N 55°17' W 000°41'815.1
2018-Jun-22 19:30N 55°10' W 000°37'815.2
2018-Jun-22 19:01N 55°03' W 000°32'1015.4
2018-Jun-22 18:20N 54°53' W 000°26'515.5
2018-Jun-22 18:00N 54°48' W 000°23'815.5
2018-Jun-22 17:31N 54°41' W 000°18'815.6
2018-Jun-22 17:01N 54°34' W 000°13'815.3
2018-Jun-22 16:31N 54°27' W 000°09'815.1
2018-Jun-22 16:00N 54°19' W 000°04'714.7
2018-Jun-22 15:31N 54°13' E 000°01'714.4
2018-Jun-22 15:01N 54°06' E 000°05'714.1
2018-Jun-22 14:30N 53°59' E 000°10'25 8.2
2018-Jun-22 11:30N 53°35' E 000°01'3 6.3
2018-Jun-22 11:00N 53°35' W 000°04'0 0.0
2018-Jun-20 23:06N 53°35' W 000°04'2 2.3
2018-Jun-20 22:13N 53°35' W 000°00'2 4.9
2018-Jun-20 21:42N 53°35' E 000°04'11511.5
2018-Jun-20 11:41N 52°46' E 002°57'314.0
2018-Jun-20 11:26N 52°45' E 003°02'1913.9
2018-Jun-20 10:02N 52°37' E 003°32'213.9
2018-Jun-20 09:56N 52°36' E 003°34'713.8
2018-Jun-20 09:26N 52°34' E 003°45'614.0
2018-Jun-20 09:00N 52°32' E 003°54'713.5
2018-Jun-20 08:30N 52°31' E 004°05'713.6
2018-Jun-20 08:00N 52°30' E 004°16'713.7
2018-Jun-20 07:30N 52°29' E 004°27'611.2
2018-Jun-20 07:00N 52°28' E 004°36'0 0.4
2018-Jun-20 06:30N 52°28' E 004°36'2 4.4
2018-Jun-20 06:00N 52°28' E 004°40'0 0.0
2018-Jun-20 05:30N 52°28' E 004°40'0 0.0
2018-Jun-20 05:00N 52°28' E 004°40'0 0.0
2018-Jun-20 04:30N 52°28' E 004°40'0 0.0
2018-Jun-20 04:00N 52°28' E 004°40'0 0.0
2018-Jun-20 03:30N 52°28' E 004°40'0 0.0
2018-Jun-20 03:00N 52°28' E 004°40'0 0.0
2018-Jun-20 02:27N 52°28' E 004°40'0 0.0
2018-Jun-20 01:57N 52°28' E 004°40'0 0.0
2018-Jun-20 01:30N 52°28' E 004°40'0 0.0
2018-Jun-20 00:57N 52°28' E 004°40'0 0.0
2018-Jun-20 00:24N 52°28' E 004°40'0 0.0
2018-Jun-19 23:54N 52°28' E 004°40'0 0.0
2018-Jun-19 23:30N 52°28' E 004°40'0 0.0
2018-Jun-19 22:57N 52°28' E 004°40'0 0.0
2018-Jun-19 22:30N 52°28' E 004°40'0 0.0
2018-Jun-19 21:57N 52°28' E 004°40'0 0.0
2018-Jun-19 21:27N 52°28' E 004°40'0 0.0
2018-Jun-19 20:57N 52°28' E 004°40'0 0.0
2018-Jun-19 20:30N 52°28' E 004°40'0 0.0
2018-Jun-19 20:00N 52°28' E 004°40'0 0.0
2018-Jun-19 19:30N 52°28' E 004°40'0 0.0
2018-Jun-19 19:00N 52°28' E 004°40'0 0.0
2018-Jun-19 17:57N 52°28' E 004°40'0 0.0
2018-Jun-19 17:27N 52°28' E 004°40'0 0.0
2018-Jun-19 17:00N 52°28' E 004°40'0 0.0
2018-Jun-19 16:30N 52°28' E 004°40'0 0.0
2018-Jun-19 15:57N 52°28' E 004°40'0 0.0
2018-Jun-19 15:30N 52°28' E 004°40'0 0.0
2018-Jun-19 15:00N 52°28' E 004°40'0 0.0
2018-Jun-19 14:30N 52°28' E 004°40'0 0.0
2018-Jun-19 14:00N 52°28' E 004°40'0 0.0
2018-Jun-19 13:30N 52°28' E 004°40'0 0.0
2018-Jun-19 13:00N 52°28' E 004°40'0 0.0
2018-Jun-19 12:30N 52°28' E 004°40'0 0.0
2018-Jun-19 12:00N 52°28' E 004°40'0 0.0
2018-Jun-19 11:30N 52°28' E 004°40'0 0.0
2018-Jun-19 11:00N 52°28' E 004°40'0 0.0
2018-Jun-19 10:27N 52°28' E 004°40'0 0.0
2018-Jun-19 09:57N 52°28' E 004°40'0 0.0
2018-Jun-19 09:27N 52°28' E 004°40'0 0.0
2018-Jun-19 09:00N 52°28' E 004°40'0 0.0
2018-Jun-19 08:30N 52°28' E 004°40'0 0.0
2018-Jun-19 07:57N 52°28' E 004°40'0 0.0
2018-Jun-19 07:27N 52°28' E 004°40'0 0.0
2018-Jun-19 06:57N 52°28' E 004°40'0 0.0
2018-Jun-19 06:30N 52°28' E 004°40'0 0.0
2018-Jun-19 05:57N 52°28' E 004°40'0 0.0
2018-Jun-19 05:27N 52°28' E 004°40'0 0.0
2018-Jun-19 05:00N 52°28' E 004°40'0 0.0
2018-Jun-19 04:30N 52°28' E 004°40'0 0.0
2018-Jun-19 03:54N 52°28' E 004°40'0 0.1
2018-Jun-19 03:27N 52°28' E 004°40'0 0.0
2018-Jun-19 03:00N 52°28' E 004°40'0 0.0
2018-Jun-19 02:30N 52°28' E 004°40'0 0.0
2018-Jun-19 02:00N 52°28' E 004°40'0 0.0
2018-Jun-19 01:27N 52°28' E 004°40'0 0.0
2018-Jun-19 01:00N 52°28' E 004°40'0 0.0
2018-Jun-19 00:27N 52°28' E 004°40'0 0.0
2018-Jun-18 23:51N 52°28' E 004°40'0 0.0
2018-Jun-18 23:30N 52°28' E 004°40'0 0.0
2018-Jun-18 23:00N 52°28' E 004°40'0 0.0
2018-Jun-18 22:27N 52°28' E 004°40'0 0.0
2018-Jun-18 21:57N 52°28' E 004°40'0 0.0
2018-Jun-18 21:27N 52°28' E 004°40'0 0.0
2018-Jun-18 20:57N 52°28' E 004°40'0 0.0
2018-Jun-18 20:30N 52°28' E 004°40'0 0.0
2018-Jun-18 20:00N 52°28' E 004°40'0 0.0
2018-Jun-18 19:30N 52°28' E 004°40'0 0.0
2018-Jun-18 19:00N 52°28' E 004°40'0 0.0
2018-Jun-18 18:30N 52°28' E 004°40'0 0.0
2018-Jun-18 18:00N 52°28' E 004°40'0 0.0
2018-Jun-18 17:30N 52°28' E 004°40'0 0.0
2018-Jun-18 16:57N 52°28' E 004°40'0 0.0
2018-Jun-18 16:30N 52°28' E 004°40'0 0.0
2018-Jun-18 15:51N 52°28' E 004°40'0 0.0
2018-Jun-18 15:30N 52°28' E 004°40'0 0.0
2018-Jun-18 14:57N 52°28' E 004°40'0 0.0
2018-Jun-18 14:27N 52°28' E 004°40'0 0.0
2018-Jun-18 14:00N 52°28' E 004°40'0 0.0
2018-Jun-18 13:31N 52°28' E 004°40'2 4.4
2018-Jun-18 13:00N 52°28' E 004°36'1 1.7
2018-Jun-18 12:30N 52°28' E 004°35'5 9.3
2018-Jun-18 12:00N 52°31' E 004°29'5 9.8
2018-Jun-18 11:30N 52°36' E 004°29'4 7.1
2018-Jun-18 10:58N 52°40' E 004°29'4 8.3
2018-Jun-18 10:28N 52°44' E 004°29'4 7.8
2018-Jun-18 10:00N 52°47' E 004°29'4 8.1
2018-Jun-18 09:31N 52°51' E 004°29'5 9.4
2018-Jun-18 08:58N 52°56' E 004°30'510.5
2018-Jun-18 08:29N 53°02' E 004°31'510.2
2018-Jun-18 07:58N 53°07' E 004°32'30113.0
2018-Jun-17 08:46N 58°04' E 005°55'313.0
2018-Jun-17 08:30N 58°07' E 005°55'713.3
2018-Jun-17 08:01N 58°14' E 005°57'713.6
2018-Jun-17 07:31N 58°21' E 005°59'611.1
2018-Jun-17 07:01N 58°26' E 005°59'0 0.0
2018-Jun-17 06:30N 58°26' E 005°59'0 0.0
2018-Jun-17 06:01N 58°26' E 005°59'0 0.0
2018-Jun-17 05:30N 58°26' E 005°59'0 0.0
2018-Jun-17 05:01N 58°26' E 005°59'0 0.0
2018-Jun-17 04:31N 58°26' E 005°59'0 0.0
2018-Jun-17 04:00N 58°26' E 005°59'0 0.0
2018-Jun-17 03:31N 58°26' E 005°59'0 0.0
2018-Jun-17 03:01N 58°26' E 005°59'0 0.0
2018-Jun-17 02:31N 58°26' E 005°59'0 0.0
2018-Jun-17 02:01N 58°26' E 005°59'0 0.0
2018-Jun-17 01:31N 58°26' E 005°59'0 0.0
2018-Jun-17 01:01N 58°26' E 005°59'0 0.0
2018-Jun-17 00:31N 58°26' E 005°59'0 0.0
2018-Jun-17 00:00N 58°26' E 005°59'0 0.0
2018-Jun-16 23:30N 58°26' E 005°59'0 0.0
2018-Jun-16 23:00N 58°26' E 005°59'0 0.0
2018-Jun-16 22:30N 58°26' E 005°59'0 0.0
2018-Jun-16 22:01N 58°26' E 005°59'0 0.0
2018-Jun-16 21:30N 58°26' E 005°59'0 0.0
2018-Jun-16 21:01N 58°26' E 005°59'0 0.0
2018-Jun-16 20:30N 58°26' E 005°59'0 0.0
2018-Jun-16 20:00N 58°26' E 005°59'0 0.0
2018-Jun-16 19:30N 58°26' E 005°59'0 0.0
2018-Jun-16 19:01N 58°26' E 005°59'0 0.0
2018-Jun-16 18:30N 58°26' E 005°59'0 0.0
2018-Jun-16 18:00N 58°26' E 005°59'0 0.0
2018-Jun-16 17:31N 58°26' E 005°59'0 0.0
2018-Jun-16 17:01N 58°26' E 005°59'0 0.0
2018-Jun-16 16:31N 58°26' E 005°59'0 0.0
2018-Jun-16 16:01N 58°26' E 005°59'0 0.0
2018-Jun-16 15:30N 58°26' E 005°59'0 0.0
2018-Jun-16 15:00N 58°26' E 005°59'0 0.0
2018-Jun-16 14:31N 58°26' E 005°59'0 0.0
2018-Jun-16 14:01N 58°26' E 005°59'0 0.0
2018-Jun-16 13:31N 58°26' E 005°59'0 0.0
2018-Jun-16 13:00N 58°26' E 005°59'0 0.2
2018-Jun-16 12:30N 58°26' E 005°59'4 8.8
2018-Jun-16 12:00N 58°25' E 005°51'713.7
2018-Jun-16 11:30N 58°29' E 005°41'713.4
2018-Jun-16 11:00N 58°34' E 005°33'713.7
2018-Jun-16 10:31N 58°40' E 005°27'713.6
2018-Jun-16 10:00N 58°47' E 005°24'612.9
2018-Jun-16 09:30N 58°52' E 005°31'713.3
2018-Jun-16 09:00N 58°59' E 005°33'713.6
2018-Jun-16 08:30N 59°06' E 005°31'713.2
2018-Jun-16 08:00N 59°10' E 005°21'713.2
2018-Jun-16 07:31N 59°16' E 005°20'4 7.9
2018-Jun-16 06:59N 59°20' E 005°18'0 0.0
2018-Jun-16 06:29N 59°20' E 005°18'0 0.0
2018-Jun-16 05:59N 59°20' E 005°18'0 0.0
2018-Jun-16 05:29N 59°20' E 005°18'0 0.0
2018-Jun-16 04:59N 59°20' E 005°18'0 0.0
2018-Jun-16 04:29N 59°20' E 005°18'0 0.0
2018-Jun-16 03:59N 59°20' E 005°18'0 0.0
2018-Jun-16 03:29N 59°20' E 005°18'0 0.0
2018-Jun-16 02:59N 59°20' E 005°18'0 0.0
2018-Jun-16 02:29N 59°20' E 005°18'0 0.0
2018-Jun-16 01:59N 59°20' E 005°18'0 0.0
2018-Jun-16 01:29N 59°20' E 005°18'0 0.0
2018-Jun-16 00:59N 59°20' E 005°18'0 0.0
2018-Jun-16 00:29N 59°20' E 005°18'0 0.0
2018-Jun-15 23:59N 59°20' E 005°18'0 0.0
2018-Jun-15 23:29N 59°20' E 005°18'0 0.0
2018-Jun-15 22:59N 59°20' E 005°18'0 0.0
2018-Jun-15 22:29N 59°20' E 005°18'0 0.0
2018-Jun-15 21:59N 59°20' E 005°18'0 0.0
2018-Jun-15 21:29N 59°20' E 005°18'0 0.0
2018-Jun-15 20:59N 59°20' E 005°18'0 0.0
2018-Jun-15 20:29N 59°20' E 005°18'0 0.0
2018-Jun-15 19:59N 59°20' E 005°18'0 0.0
2018-Jun-15 19:29N 59°20' E 005°18'0 0.0
2018-Jun-15 18:59N 59°20' E 005°18'0 0.0
2018-Jun-15 18:29N 59°20' E 005°18'0 0.0
2018-Jun-15 17:59N 59°20' E 005°18'0 0.0
2018-Jun-15 17:29N 59°20' E 005°18'0 0.0
2018-Jun-15 16:59N 59°20' E 005°18'0 0.0
2018-Jun-15 16:29N 59°20' E 005°18'0 0.1
2018-Jun-15 15:59N 59°20' E 005°18'4 8.0
2018-Jun-15 15:30N 59°17' E 005°20'4 7.4
2018-Jun-15 14:59N 59°20' E 005°18'0 0.0
2018-Jun-15 14:29N 59°20' E 005°18'0 0.0
2018-Jun-15 13:59N 59°20' E 005°18'0 0.0
2018-Jun-15 13:29N 59°20' E 005°18'0 0.0
2018-Jun-15 12:59N 59°20' E 005°18'0 0.0
2018-Jun-15 12:29N 59°20' E 005°18'0 0.0
2018-Jun-15 11:59N 59°20' E 005°18'0 0.0
2018-Jun-15 11:29N 59°20' E 005°18'0 0.0
2018-Jun-15 10:59N 59°20' E 005°18'0 0.0
2018-Jun-15 10:29N 59°20' E 005°18'0 0.0
2018-Jun-15 09:59N 59°20' E 005°18'0 0.0
2018-Jun-15 09:29N 59°20' E 005°18'0 0.0
2018-Jun-15 08:59N 59°20' E 005°18'0 0.0
2018-Jun-15 08:29N 59°20' E 005°18'  

Dump ship's entire track history